Latest Weather Observations for Latrobe Valley

IDV60801

Issued at 3:52 pm EDT Tuesday 29 November 2022 (issued every 10 minutes, with the page automatically refreshed every 10 minutes)

About weather observations | Map of weather stations | Latest weather observations for VIC | Other Formats
Station Details ID: 085280 Name: LATROBE VALLEY AIRPORT Lat: -38.21 Lon: 146.47 Height: 55.7 m
Data from the previous 72 hours. | See also: Recent months at Latrobe Valley
Date/Time
EDT
Temp
°C
App
Temp
°C
Dew
Point
°C
Rel
Hum
%
Delta-T
°C
Wind Press
QNH
hPa
Press
MSL
hPa
Rain since
9am
mm
Dir  Spd
km/h
Gust
km/h
Spd
kts
Gust
kts
29/03:30pm 18.7 11.6 6.2 44 6.2 SW 33 43 18 23 1015.9 1015.8 0.0
29/03:00pm 18.5 11.4 5.7 43 6.3 SW 32 46 17 25 1015.9 1015.8 0.0
29/02:46pm 19.0 12.2 7.1 46 6.0 SW 32 50 17 27 1015.9 1015.8 0.0
29/02:30pm 18.7 11.9 6.9 46 5.9 SW 32 44 17 24 1015.8 1015.7 0.0
29/02:00pm 18.5 11.5 6.7 46 5.9 SW 33 46 18 25 1015.7 1015.6 0.0
29/01:30pm 18.4 11.8 7.8 50 5.4 WSW 32 41 17 22 1015.5 1015.4 0.0
29/01:00pm 18.2 11.8 8.5 53 5.0 SW 32 41 17 22 1015.7 1015.6 0.0
29/12:30pm 17.8 11.1 7.5 51 5.2 WSW 32 43 17 23 1015.5 1015.4 0.0
29/12:00pm 17.9 11.2 7.3 50 5.3 WSW 32 43 17 23 1015.4 1015.3 0.0
29/11:30am 16.4 10.0 6.8 53 4.7 WSW 30 44 16 24 1015.3 1015.2 0.0
29/11:00am 17.1 11.3 8.0 55 4.6 SW 28 39 15 21 1015.2 1015.1 0.0
29/10:30am 16.2 10.5 8.2 59 4.1 WSW 28 39 15 21 1014.9 1014.8 0.0
29/10:00am 15.6 11.4 8.4 62 3.7 W 20 30 11 16 1014.8 1014.7 0.0
29/09:30am 14.5 10.9 9.7 73 2.5 W 19 24 10 13 1014.7 1014.6 0.0
29/09:00am 14.6 10.4 9.8 73 2.5 W 22 32 12 17 1014.2 1014.1 1.0
29/08:30am 13.3 8.8 9.9 80 1.8 W 24 33 13 18 1013.8 1013.7 1.0
29/08:00am 12.6 8.1 10.1 85 1.3 W 24 32 13 17 1013.5 1013.4 1.0
29/07:30am 11.7 7.5 9.6 87 1.1 W 22 32 12 17 1012.8 1012.8 1.0
29/07:00am 11.1 7.5 9.9 92 0.6 W 19 26 10 14 1012.6 1012.6 1.0
29/06:30am 10.2 6.8 9.1 93 0.5 W 17 20 9 11 1012.1 1012.1 1.0
29/06:00am 10.0 6.2 8.9 93 0.5 W 19 24 10 13 1011.7 1011.7 1.0
29/05:30am 10.0 5.9 8.8 92 0.6 W 20 26 11 14 1011.0 1011.0 1.0
29/05:00am 9.8 6.3 8.6 92 0.6 W 17 22 9 12 1010.6 1010.6 1.0
29/04:30am 9.9 5.8 8.0 88 0.9 W 19 24 10 13 1010.2 1010.2 1.0
29/04:00am 10.7 7.3 9.1 90 0.8 WSW 17 22 9 12 1009.8 1009.8 1.0
29/03:30am 10.8 6.6 9.6 92 0.6 WSW 22 32 12 17 1009.5 1009.5 0.8
29/03:00am 11.1 6.2 9.9 92 0.6 SW 26 33 14 18 1009.6 1009.6 0.4
29/02:34am 12.1 6.6 10.5 90 0.8 W 30 43 16 23 1009.0 1009.0 0.2
29/02:30am 12.2 7.1 10.6 90 0.8 W 28 43 15 23 1009.0 1009.0 0.2
29/02:18am 12.3 6.8 10.5 89 0.9 W 30 44 16 24 1009.0 1009.0 0.0
29/02:00am 13.1 7.8 9.9 81 1.7 W 28 39 15 21 1008.8 1008.8 0.0
29/01:30am 13.1 7.0 9.9 81 1.6 W 32 44 17 24 1008.7 1008.6 0.0
29/01:00am 13.5 8.1 9.6 77 2.0 W 28 43 15 23 1008.5 1008.4 0.0
29/12:30am 13.4 8.1 9.8 79 1.9 W 28 37 15 20 1008.5 1008.4 0.0
29/12:00am 12.9 8.7 9.7 81 1.6 W 22 33 12 18 1008.5 1008.4 0.0
 
Date/Time
EDT
Temp
°C
App
Temp
°C
Dew
Point
°C
Rel
Hum
%
Delta-T
°C
Wind Press
QNH
hPa
Press
MSL
hPa
Rain since
9am
mm
Dir  Spd
km/h
Gust
km/h
Spd
kts
Gust
kts
28/11:30pm 12.8 8.7 10.0 83 1.4 W 22 30 12 16 1008.5 1008.4 0.0
28/11:00pm 12.4 8.9 10.3 87 1.1 W 19 24 10 13 1008.4 1008.3 0.0
28/10:30pm 13.2 8.8 10.4 83 1.5 WNW 24 32 13 17 1008.7 1008.6 0.0
28/10:00pm 12.8 8.7 10.0 83 1.4 WNW 22 30 12 16 1008.3 1008.2 0.0
28/09:30pm 12.7 9.5 10.1 84 1.3 WNW 17 24 9 13 1008.1 1008.0 0.0
28/09:00pm 13.8 9.9 9.3 74 2.3 W 20 30 11 16 1008.0 1007.9 0.0
28/08:30pm 14.2 10.7 8.6 69 2.8 W 17 22 9 12 1007.8 1007.7 0.0
28/08:00pm 14.5 10.9 8.2 66 3.2 W 17 20 9 11 1007.3 1007.2 0.0
28/07:30pm 15.3 10.7 8.1 62 3.6 W 22 33 12 18 1007.2 1007.1 0.0
28/07:00pm 14.9 11.7 8.6 66 3.2 W 15 20 8 11 1007.0 1006.9 0.0
28/06:30pm 15.5 11.8 7.8 60 3.9 W 17 22 9 12 1006.8 1006.7 0.0
28/06:00pm 15.8 11.4 7.6 58 4.1 WNW 20 30 11 16 1006.7 1006.6 0.0
28/05:30pm 16.2 12.2 8.2 59 4.1 WNW 19 26 10 14 1006.6 1006.5 0.0
28/05:00pm 15.3 10.5 7.3 59 4.0 WNW 22 32 12 17 1006.7 1006.6 0.0
28/04:30pm 15.9 10.6 6.9 55 4.4 WNW 24 35 13 19 1006.7 1006.6 0.0
28/04:00pm 17.0 11.5 7.4 53 4.8 WNW 26 35 14 19 1006.6 1006.5 0.0
28/03:30pm 16.3 10.2 6.4 52 4.8 WNW 28 35 15 19 1006.8 1006.7 0.0
28/03:00pm 16.3 10.3 7.0 54 4.6 W 28 37 15 20 1007.0 1006.9 0.0
28/02:30pm 16.0 9.2 7.0 55 4.5 W 32 43 17 23 1007.4 1007.3 0.0
28/02:00pm 16.6 11.3 8.3 58 4.2 W 26 37 14 20 1007.5 1007.4 0.0
28/01:30pm 14.8 8.3 6.4 57 4.1 W 30 41 16 22 1007.5 1007.4 0.0
28/01:00pm 15.3 9.5 6.3 55 4.4 W 26 35 14 19 1007.5 1007.4 0.0
28/12:30pm 15.0 10.5 7.1 59 3.9 W 20 28 11 15 1007.8 1007.7 0.0
28/12:00pm 13.7 8.4 7.0 64 3.3 W 24 32 13 17 1008.2 1008.1 0.0
28/11:30am 14.7 10.9 7.5 62 3.6 W 17 24 9 13 1008.2 1008.1 0.0
28/11:00am 14.2 9.3 6.8 61 3.6 W 22 30 12 16 1008.2 1008.1 0.0
28/10:30am 13.8 8.8 6.4 61 3.6 W 22 30 12 16 1008.3 1008.2 0.0
28/10:00am 13.1 8.4 6.0 62 3.4 W 20 28 11 15 1008.3 1008.2 0.0
28/09:30am 14.9 10.3 8.2 64 3.4 W 22 28 12 15 1008.2 1008.1 0.0
28/09:00am 13.2 8.5 7.9 70 2.6 W 22 32 12 17 1008.3 1008.2 0.2
28/08:30am 12.7 9.0 8.0 73 2.3 W 17 28 9 15 1008.3 1008.2 0.2
28/08:00am 11.5 8.5 7.8 78 1.8 W 13 20 7 11 1008.1 1008.0 0.2
28/07:30am 11.1 7.8 8.0 81 1.5 WSW 15 20 8 11 1007.9 1007.8 0.2
28/07:00am 10.7 8.7 8.6 87 1.0 S 9 13 5 7 1007.5 1007.4 0.2
28/06:30am 9.9 8.3 8.2 89 0.8 S 6 9 3 5 1007.3 1007.2 0.2
28/06:00am 9.2 7.4 7.8 91 0.7 S 7 9 4 5 1007.2 1007.1 0.2
28/05:30am 9.0 6.0 7.5 90 0.7 WNW 13 17 7 9 1007.0 1006.9 0.2
28/05:00am 9.4 6.4 7.5 88 0.9 WNW 13 19 7 10 1006.8 1006.7 0.2
28/04:30am 9.8 7.3 8.1 89 0.8 W 11 15 6 8 1006.8 1006.7 0.2
28/04:00am 10.6 7.2 7.8 83 1.4 WSW 15 22 8 12 1006.6 1006.5 0.2
28/03:30am 10.1 7.9 8.0 87 1.0 W 9 13 5 7 1006.6 1006.5 0.2
28/03:00am 10.6 8.1 8.4 86 1.1 W 11 13 6 7 1006.5 1006.4 0.2
28/02:30am 10.7 8.2 8.3 85 1.2 W 11 13 6 7 1006.6 1006.5 0.2
28/02:00am 10.8 7.8 7.9 82 1.4 WSW 13 17 7 9 1006.9 1006.8 0.2
28/01:30am 10.7 7.6 7.2 79 1.7 W 13 19 7 10 1007.1 1007.0 0.2
28/01:00am 11.2 8.4 8.6 84 1.3 W 13 17 7 9 1007.4 1007.3 0.2
28/12:30am 11.6 8.8 8.6 82 1.5 W 13 19 7 10 1007.5 1007.4 0.2
28/12:00am 11.7 8.6 8.9 83 1.4 W 15 19 8 10 1007.5 1007.4 0.2
 
Date/Time
EDT
Temp
°C
App
Temp
°C
Dew
Point
°C
Rel
Hum
%
Delta-T
°C
Wind Press
QNH
hPa
Press
MSL
hPa
Rain since
9am
mm
Dir  Spd
km/h
Gust
km/h
Spd
kts
Gust
kts
27/11:30pm 11.8 9.1 9.0 83 1.4 W 13 17 7 9 1007.5 1007.4 0.2
27/11:00pm 11.8 8.7 9.0 83 1.4 WNW 15 20 8 11 1007.4 1007.3 0.2
27/10:30pm 11.9 8.9 9.1 83 1.4 W 15 17 8 9 1007.3 1007.2 0.2
27/10:00pm 11.9 8.4 8.7 81 1.6 WNW 17 24 9 13 1007.2 1007.1 0.2
27/09:30pm 12.1 8.9 8.6 79 1.7 W 15 20 8 11 1007.1 1007.0 0.2
27/09:00pm 12.0 8.3 8.1 77 1.9 W 17 20 9 11 1006.8 1006.7 0.2
27/08:30pm 11.9 8.3 8.2 78 1.8 W 17 20 9 11 1006.5 1006.4 0.2
27/08:00pm 12.0 6.1 9.2 83 1.4 SW 30 41 16 22 1006.1 1006.0 0.2
27/07:30pm 13.1 8.1 9.4 78 1.9 SW 26 35 14 19 1005.4 1005.3 0.2
27/07:00pm 13.9 8.4 9.1 73 2.5 SW 28 39 15 21 1004.6 1004.5 0.2
27/06:30pm 15.2 9.7 9.3 68 3.0 SW 28 35 15 19 1003.9 1003.8 0.2
27/06:00pm 15.8 9.0 9.2 65 3.4 SW 35 46 19 25 1003.3 1003.2 0.2
27/05:30pm 19.4 13.7 8.4 49 5.7 W 28 37 15 20 1002.6 1002.5 0.2
27/05:00pm 19.9 16.1 9.8 52 5.4 WSW 20 30 11 16 1002.6 1002.5 0.2
27/04:30pm 18.5 12.7 9.6 56 4.7 SW 30 39 16 21 1002.8 1002.7 0.2
27/04:00pm 20.1 14.4 9.9 52 5.5 W 30 41 16 22 1002.8 1002.7 0.2
27/03:30pm 20.4 14.3 9.9 51 5.6 WSW 32 43 17 23 1002.8 1002.7 0.2
27/03:00pm 19.1 12.5 9.9 55 4.9 WSW 35 46 19 25 1003.0 1002.9 0.2
27/02:30pm 19.7 13.1 10.1 54 5.2 W 35 44 19 24 1002.8 1002.7 0.2
27/02:00pm 20.5 14.7 10.9 54 5.3 W 32 46 17 25 1002.7 1002.6 0.2
27/01:30pm 19.4 13.7 9.9 54 5.1 WSW 30 44 16 24 1002.9 1002.8 0.2
27/01:00pm 19.1 13.4 9.9 55 4.9 W 30 41 16 22 1002.9 1002.8 0.2
27/12:30pm 19.2 14.4 11.5 61 4.2 W 28 35 15 19 1002.9 1002.8 0.2
27/12:00pm 18.4 14.4 11.9 66 3.6 W 24 32 13 17 1002.9 1002.8 0.2
27/11:30am 18.7 15.9 12.5 67 3.5 SW 19 28 10 15 1002.9 1002.8 0.2
27/11:00am 18.2 15.1 12.2 68 3.3 SW 20 30 11 16 1003.0 1002.9 0.0
27/10:30am 16.8 13.5 11.7 72 2.8 SW 20 28 11 15 1003.0 1002.9 0.0
27/10:00am 18.5 14.8 12.7 69 3.3 W 24 32 13 17 1002.8 1002.7 0.0
27/09:30am 17.7 14.3 12.6 72 2.8 W 22 32 12 17 1003.1 1003.0 0.0
27/09:00am 16.4 12.8 12.0 75 2.4 W 22 32 12 17 1003.3 1003.2 0.4
27/08:30am 17.1 14.0 12.2 73 2.7 W 20 28 11 15 1003.2 1003.1 0.4
27/08:00am 16.1 14.5 12.7 80 1.9 WSW 13 19 7 10 1003.1 1003.0 0.4
27/07:30am 14.9 12.3 12.0 83 1.6 W 17 20 9 11 1003.2 1003.1 0.4
27/07:00am 15.2 12.6 12.0 81 1.7 WNW 17 22 9 12 1002.9 1002.8 0.4
27/06:30am 14.4 13.7 12.1 86 1.2 WSW 7 9 4 5 1003.0 1002.9 0.4
27/06:00am 14.0 12.1 11.7 86 1.2 WSW 13 17 7 9 1003.0 1002.9 0.4
27/05:30am 14.1 12.2 11.8 86 1.2 SW 13 17 7 9 1002.8 1002.7 0.4
27/05:01am 14.3 11.5 11.5 83 1.5 SW 17 22 9 12 1002.9 1002.8 0.4
27/05:00am 14.3 11.9 11.5 83 1.5 SW 15 20 8 11 1002.9 1002.8 0.4
27/04:30am 14.4 11.1 11.7 84 1.5 SW 20 26 11 14 1002.9 1002.8 0.4
27/04:00am 14.6 11.7 12.3 86 1.3 SW 19 26 10 14 1002.9 1002.8 0.4
27/03:48am 14.7 12.2 12.4 86 1.3 SW 17 24 9 13 1002.7 1002.6 0.4
27/03:30am 14.8 12.4 12.5 86 1.3 SW 17 24 9 13 1002.6 1002.5 0.4
27/03:00am 15.0 12.2 12.5 85 1.4 SW 19 22 10 12 1002.5 1002.4 0.4
27/02:30am 15.6 11.7 12.2 80 1.9 SW 24 33 13 18 1002.5 1002.4 0.4
27/02:00am 15.6 14.9 14.3 92 0.7 NW 11 13 6 7 1002.2 1002.1 0.4
27/01:30am 15.2 14.5 14.2 94 0.6 NNW 11 13 6 7 1002.5 1002.4 0.4
27/01:00am 15.0 15.0 13.7 92 0.7 W 6 7 3 4 1002.6 1002.5 0.4
27/12:30am 15.2 14.8 14.1 93 0.6 N 9 13 5 7 1002.9 1002.8 0.4
27/12:00am 15.2 15.0 13.7 91 0.8 WSW 7 11 4 6 1002.5 1002.4 0.4
 
Date/Time
EDT
Temp
°C
App
Temp
°C
Dew
Point
°C
Rel
Hum
%
Delta-T
°C
Wind Press
QNH
hPa
Press
MSL
hPa
Rain since
9am
mm
Dir  Spd
km/h
Gust
km/h
Spd
kts
Gust
kts
26/11:30pm 15.3 14.8 13.7 90 0.9 ESE 9 19 5 10 1002.6 1002.5 0.4
26/11:00pm 15.3 15.3 13.5 89 1.0 NNW 6 9 3 5 1003.6 1003.5 0.2
26/10:30pm 16.1 15.4 13.2 83 1.6 S 9 11 5 6 1003.7 1003.6 0.0
26/10:00pm 15.9 16.3 12.5 80 1.9 NNW 2 6 1 3 1004.2 1004.1 0.0
26/09:30pm 15.9 14.6 12.5 80 1.9 WSW 11 13 6 7 1004.1 1004.0 0.0
26/09:00pm 16.7 15.9 11.6 72 2.8 E 7 13 4 7 1003.4 1003.3 0.0
26/08:30pm 17.0 15.5 11.9 72 2.8 ENE 11 15 6 8 1003.3 1003.2 0.0
26/08:00pm 17.5 15.4 11.3 67 3.4 ENE 13 17 7 9 1003.4 1003.3 0.0
26/07:30pm 17.9 15.4 11.2 65 3.6 ENE 15 24 8 13 1003.3 1003.2 0.0
26/07:00pm 18.4 16.3 11.2 63 3.9 ENE 13 20 7 11 1003.6 1003.5 0.0
26/06:30pm 19.1 16.1 10.6 58 4.6 ENE 17 24 9 13 1003.7 1003.6 0.0
26/06:00pm 19.7 16.1 10.7 56 4.9 NE 20 32 11 17 1003.8 1003.7 0.0
26/05:30pm 20.7 17.8 12.4 59 4.7 NE 19 24 10 13 1004.0 1003.9 0.0
26/05:00pm 22.5 20.2 14.1 59 4.9 ENE 19 32 10 17 1004.2 1004.1 0.0
26/04:30pm 21.9 19.8 13.5 59 4.9 ENE 17 24 9 13 1004.7 1004.6 0.0
26/04:00pm 22.1 19.8 12.9 56 5.3 NE 17 24 9 13 1005.2 1005.1 0.0

Other formats

Comma delimited format used in spreadsheet applications
http://www.bom.gov.au/fwo/IDV60801/IDV60801.94891.axf

JavaScript Object Notation format (JSON) in row-major order
http://www.bom.gov.au/fwo/IDV60801/IDV60801.94891.json

Data quality

Most of these data are generated automatically and are frequently updated. Quality checks on data are not normally performed. It is possible for incorrect values to appear. Refer to information at About Latest Weather Observations and please check the disclaimer before using these data.